createdAt,value
2022-08-20T00:01:06.191Z,13.20
2022-08-20T00:03:37.279Z,12.60
2022-08-20T00:06:11.288Z,12.50
2022-08-20T00:08:38.640Z,12.90
2022-08-20T00:11:08.248Z,12.93
2022-08-20T00:13:40.687Z,12.40
2022-08-20T00:16:08.298Z,13.03
2022-08-20T00:18:38.193Z,13.00
2022-08-20T00:21:13.291Z,12.87
2022-08-20T00:23:49.293Z,12.83
2022-08-20T00:26:17.649Z,12.80
2022-08-20T00:28:44.707Z,12.93
2022-08-20T00:31:15.311Z,12.73
2022-08-20T00:33:42.268Z,12.67
2022-08-20T00:36:10.936Z,12.30
2022-08-20T00:38:43.705Z,12.63
2022-08-20T00:41:17.989Z,12.93
2022-08-20T00:43:48.657Z,12.87
2022-08-20T00:46:21.867Z,12.87
2022-08-20T00:48:59.873Z,12.57
2022-08-20T00:51:48.042Z,13.40
2022-08-20T00:54:19.900Z,13.07
2022-08-20T00:56:51.155Z,12.87
2022-08-20T00:59:23.132Z,12.77
2022-08-20T01:01:55.107Z,12.67
2022-08-20T01:04:28.141Z,12.20
2022-08-20T01:06:55.864Z,12.87
2022-08-20T01:09:49.921Z,12.63
2022-08-20T01:12:11.132Z,12.40
2022-08-20T01:14:38.029Z,12.73
2022-08-20T01:17:07.924Z,12.70
2022-08-20T01:19:43.277Z,12.63
2022-08-20T01:22:31.881Z,12.63
2022-08-20T01:25:10.112Z,12.43
2022-08-20T01:27:42.618Z,13.10
2022-08-20T01:30:10.447Z,13.00
2022-08-20T01:32:37.388Z,12.37
2022-08-20T01:35:05.712Z,12.60
2022-08-20T01:37:32.560Z,12.93
2022-08-20T01:39:59.695Z,12.23
2022-08-20T01:42:37.678Z,12.33
2022-08-20T01:45:18.498Z,12.80
2022-08-20T01:47:46.202Z,12.40
2022-08-20T01:50:23.701Z,12.30
2022-08-20T01:53:04.433Z,12.77
2022-08-20T01:55:32.496Z,12.47
2022-08-20T01:58:00.915Z,13.13
2022-08-20T02:00:28.345Z,12.80
2022-08-20T02:02:55.269Z,12.93
2022-08-20T02:05:23.939Z,12.83
2022-08-20T02:07:57.817Z,12.93
2022-08-20T02:10:25.111Z,12.47
2022-08-20T02:12:53.108Z,13.27
2022-08-20T02:15:30.763Z,12.37
2022-08-20T02:18:11.134Z,12.80
2022-08-20T02:20:40.547Z,12.70
2022-08-20T02:23:08.636Z,12.67
2022-08-20T02:25:38.332Z,13.90
2022-08-20T02:28:12.095Z,13.00
2022-08-20T02:30:44.173Z,13.30
2022-08-20T02:33:13.719Z,12.57
2022-08-20T02:35:42.931Z,13.27
2022-08-20T02:38:10.940Z,12.80
2022-08-20T02:40:38.261Z,12.80
2022-08-20T02:43:05.732Z,12.97
2022-08-20T02:45:43.674Z,13.00
2022-08-20T02:48:21.421Z,12.70
2022-08-20T02:50:52.013Z,13.03
2022-08-20T02:53:19.614Z,13.00
2022-08-20T02:55:46.697Z,13.40
2022-08-20T02:58:13.784Z,13.20
2022-08-20T03:00:41.082Z,12.97
2022-08-20T03:03:10.528Z,13.53
2022-08-20T03:05:39.919Z,13.00
2022-08-20T03:08:09.147Z,12.60
2022-08-20T03:10:37.329Z,13.10
2022-08-20T03:13:05.306Z,13.17
2022-08-20T03:15:33.967Z,12.73
2022-08-20T03:18:01.084Z,13.13
2022-08-20T03:20:29.289Z,12.90
2022-08-20T03:22:56.460Z,13.23
2022-08-20T03:25:23.767Z,13.07
2022-08-20T03:27:54.732Z,12.63
2022-08-20T03:30:26.132Z,13.00
2022-08-20T03:32:53.353Z,13.30
2022-08-20T03:35:22.849Z,13.50
2022-08-20T03:37:50.326Z,13.43
2022-08-20T03:40:22.001Z,13.60
2022-08-20T03:42:49.380Z,13.70
2022-08-20T03:45:20.374Z,13.37
2022-08-20T03:47:48.683Z,13.53
2022-08-20T03:50:23.499Z,13.93
2022-08-20T03:52:52.258Z,13.27
2022-08-20T03:55:20.203Z,12.90
2022-08-20T03:57:51.994Z,13.03
2022-08-20T04:00:32.691Z,12.43
2022-08-20T04:03:00.892Z,13.70
2022-08-20T04:05:30.089Z,12.63
2022-08-20T04:08:00.130Z,12.73
2022-08-20T04:10:31.069Z,12.40
2022-08-20T04:12:58.191Z,12.43
2022-08-20T04:15:26.962Z,13.43
2022-08-20T04:17:54.283Z,12.80
2022-08-20T04:20:24.161Z,12.37
2022-08-20T04:22:59.467Z,12.57
2022-08-20T04:25:35.781Z,12.37
2022-08-20T04:28:05.796Z,12.03
2022-08-20T04:30:33.450Z,13.13
2022-08-20T04:33:01.120Z,13.30
2022-08-20T04:35:29.546Z,13.03
2022-08-20T04:38:13.857Z,13.53
2022-08-20T04:40:58.813Z,14.13
2022-08-20T04:43:30.084Z,12.77
2022-08-20T04:45:59.444Z,13.17
2022-08-20T04:48:28.759Z,14.10
2022-08-20T04:50:57.364Z,14.20
2022-08-20T04:53:28.078Z,14.17
2022-08-20T04:55:58.744Z,13.60
2022-08-20T04:58:33.867Z,13.50
2022-08-20T05:01:06.531Z,13.63
2022-08-20T05:03:34.119Z,14.33
2022-08-20T05:06:01.850Z,13.53
2022-08-20T05:08:29.828Z,15.00
2022-08-20T05:11:06.804Z,13.43
2022-08-20T05:13:47.176Z,13.43
2022-08-20T05:16:15.201Z,13.10
2022-08-20T05:18:43.325Z,14.27
2022-08-20T05:21:10.356Z,13.57
2022-08-20T05:23:42.951Z,14.37
2022-08-20T05:26:11.328Z,14.07
2022-08-20T05:28:51.274Z,14.30
2022-08-20T05:31:31.575Z,13.77
2022-08-20T05:34:10.804Z,14.27
2022-08-20T05:36:49.310Z,13.50
2022-08-20T05:39:18.424Z,13.47
2022-08-20T05:41:45.495Z,13.83
2022-08-20T05:44:15.539Z,14.33
2022-08-20T05:46:44.644Z,13.43
2022-08-20T05:49:14.279Z,14.50
2022-08-20T05:51:41.676Z,14.00
2022-08-20T05:54:08.654Z,13.83
2022-08-20T05:56:36.154Z,14.73
2022-08-20T05:59:05.922Z,13.33
2022-08-20T06:01:35.286Z,14.67
2022-08-20T06:04:21.892Z,14.03
2022-08-20T06:06:51.812Z,13.77
2022-08-20T06:09:31.820Z,12.93
2022-08-20T06:12:01.466Z,14.37
2022-08-20T06:14:28.408Z,13.67
2022-08-20T06:16:57.787Z,14.10
2022-08-20T06:19:27.208Z,13.73
2022-08-20T06:21:59.864Z,13.40
2022-08-20T06:24:27.059Z,14.20
2022-08-20T06:26:58.706Z,14.63
2022-08-20T06:29:26.169Z,14.57
2022-08-20T06:31:53.464Z,14.17
2022-08-20T06:34:20.505Z,14.83
2022-08-20T06:36:47.748Z,14.40
2022-08-20T06:39:16.094Z,14.00
2022-08-20T06:41:43.028Z,14.03
2022-08-20T06:44:10.351Z,13.97
2022-08-20T06:46:38.112Z,13.97
2022-08-20T06:49:06.620Z,13.97
2022-08-20T06:51:34.400Z,13.73
2022-08-20T06:54:01.434Z,13.87
2022-08-20T06:56:28.345Z,13.90
2022-08-20T06:58:55.310Z,14.20
2022-08-20T07:01:22.338Z,14.10
2022-08-20T07:03:54.192Z,14.23
2022-08-20T07:06:22.216Z,14.43
2022-08-20T07:08:49.267Z,13.60
2022-08-20T07:11:16.306Z,13.83
2022-08-20T07:13:43.216Z,14.33
2022-08-20T07:16:10.146Z,14.50
2022-08-20T07:18:37.006Z,14.80
2022-08-20T07:21:04.125Z,13.10
2022-08-20T07:23:31.762Z,14.17
2022-08-20T07:25:58.983Z,14.47
2022-08-20T07:28:29.000Z,14.53
2022-08-20T07:31:16.031Z,13.03
2022-08-20T07:33:44.495Z,13.20
2022-08-20T07:36:12.820Z,14.43
2022-08-20T07:38:40.176Z,13.57
2022-08-20T07:41:10.057Z,14.17
2022-08-20T07:43:37.081Z,13.97
2022-08-20T07:46:09.271Z,13.47
2022-08-20T07:48:41.999Z,13.27
2022-08-20T07:51:11.002Z,12.97
2022-08-20T07:53:39.181Z,13.67
2022-08-20T07:56:10.225Z,13.60
2022-08-20T07:58:43.964Z,13.13
2022-08-20T08:01:11.800Z,13.40
2022-08-20T08:03:49.215Z,13.47
2022-08-20T08:06:29.242Z,14.23
2022-08-20T08:09:14.756Z,14.53
2022-08-20T08:11:47.459Z,13.87
2022-08-20T08:14:17.096Z,14.30
2022-08-20T08:16:45.562Z,14.03
2022-08-20T08:19:16.159Z,14.50
2022-08-20T08:21:44.302Z,13.13
2022-08-20T08:24:14.361Z,13.40
2022-08-20T08:26:44.391Z,13.97
2022-08-20T08:29:12.135Z,13.33
2022-08-20T08:31:41.006Z,14.10
2022-08-20T08:34:08.546Z,14.27
2022-08-20T08:36:35.534Z,12.83
2022-08-20T08:39:02.424Z,13.80
2022-08-20T08:41:35.820Z,12.97
2022-08-20T08:44:23.587Z,13.57
2022-08-20T08:47:13.783Z,14.17
2022-08-20T08:49:40.810Z,13.27
2022-08-20T08:52:14.752Z,13.53
2022-08-20T08:54:48.986Z,13.40
2022-08-20T08:57:16.844Z,14.40
2022-08-20T08:59:52.118Z,13.53
2022-08-20T09:02:33.460Z,12.70
2022-08-20T09:05:04.488Z,12.70
2022-08-20T09:07:33.551Z,12.80
2022-08-20T09:10:02.417Z,12.30
2022-08-20T09:12:29.339Z,12.37
2022-08-20T09:14:56.321Z,13.10
2022-08-20T09:17:23.879Z,13.10
2022-08-20T09:19:52.376Z,11.90
2022-08-20T09:22:22.212Z,12.13
2022-08-20T09:24:50.018Z,12.27
2022-08-20T09:27:17.065Z,11.83
2022-08-20T09:29:44.280Z,11.60
2022-08-20T09:32:17.725Z,11.80
2022-08-20T09:34:47.822Z,12.30
2022-08-20T09:37:15.719Z,11.97
2022-08-20T09:39:43.465Z,12.00
2022-08-20T09:42:13.634Z,12.80
2022-08-20T09:44:41.083Z,12.77
2022-08-20T09:47:08.068Z,12.07
2022-08-20T09:49:36.824Z,12.13
2022-08-20T09:52:06.742Z,11.80
2022-08-20T09:54:34.697Z,11.57
2022-08-20T09:57:04.677Z,12.20
2022-08-20T09:59:34.413Z,13.13
2022-08-20T10:02:01.385Z,13.97
2022-08-20T10:04:28.595Z,13.00
2022-08-20T10:06:56.926Z,13.47
2022-08-20T10:09:24.389Z,11.97
2022-08-20T10:11:51.384Z,12.10
2022-08-20T10:14:18.251Z,11.93
2022-08-20T10:16:45.244Z,11.33
2022-08-20T10:19:12.068Z,11.20
2022-08-20T10:21:39.501Z,11.23
2022-08-20T10:24:06.565Z,11.70
2022-08-20T10:26:33.494Z,11.83
2022-08-20T10:29:00.397Z,12.43
2022-08-20T10:31:27.326Z,11.47
2022-08-20T10:33:54.191Z,11.97
2022-08-20T10:36:21.245Z,11.10
2022-08-20T10:38:49.126Z,11.37
2022-08-20T10:41:16.313Z,11.80
2022-08-20T10:43:43.164Z,11.80
2022-08-20T10:46:10.238Z,11.50
2022-08-20T10:48:37.640Z,11.77
2022-08-20T10:51:04.997Z,11.90
2022-08-20T10:53:32.511Z,11.70
2022-08-20T10:55:59.424Z,11.60
2022-08-20T10:58:27.273Z,12.40
2022-08-20T11:01:04.923Z,11.90
2022-08-20T11:03:31.917Z,11.07
2022-08-20T11:05:58.869Z,12.43
2022-08-20T11:08:33.506Z,11.47
2022-08-20T11:11:04.193Z,12.37
2022-08-20T11:13:31.993Z,10.80
2022-08-20T11:15:58.920Z,11.63
2022-08-20T11:18:26.001Z,11.07
2022-08-20T11:20:52.996Z,11.93
2022-08-20T11:23:20.106Z,11.40
2022-08-20T11:25:47.580Z,11.57
2022-08-20T11:28:15.426Z,10.93
2022-08-20T11:30:42.477Z,11.40
2022-08-20T11:33:09.365Z,11.63
2022-08-20T11:35:49.356Z,11.77
2022-08-20T11:38:17.908Z,11.90
2022-08-20T11:40:46.771Z,12.60
2022-08-20T11:43:16.371Z,12.20
2022-08-20T11:45:46.708Z,11.87
2022-08-20T11:48:13.918Z,12.20
2022-08-20T11:50:41.280Z,11.83
2022-08-20T11:53:08.368Z,11.73
2022-08-20T11:55:35.497Z,12.30
2022-08-20T11:58:02.793Z,12.17
2022-08-20T12:00:32.809Z,12.17
2022-08-20T12:03:05.508Z,11.70
2022-08-20T12:05:33.254Z,12.20
2022-08-20T12:08:04.480Z,12.10
2022-08-20T12:10:32.343Z,12.10
2022-08-20T12:12:59.360Z,11.77
2022-08-20T12:15:27.619Z,11.87
2022-08-20T12:17:55.185Z,11.43
2022-08-20T12:20:23.520Z,11.90
2022-08-20T12:22:50.956Z,12.77
2022-08-20T12:25:18.212Z,12.27
2022-08-20T12:27:46.191Z,12.70
2022-08-20T12:30:17.056Z,12.43
2022-08-20T12:32:44.789Z,12.20
2022-08-20T12:35:13.581Z,12.37
2022-08-20T12:37:41.358Z,12.37
2022-08-20T12:40:12.725Z,11.90
2022-08-20T12:42:39.921Z,11.73
2022-08-20T12:45:07.691Z,12.37
2022-08-20T12:47:38.470Z,11.80
2022-08-20T12:50:09.889Z,12.03
2022-08-20T12:52:37.989Z,11.40
2022-08-20T12:55:06.916Z,12.07
2022-08-20T12:57:49.935Z,11.60
2022-08-20T13:00:39.075Z,11.93
2022-08-20T13:03:12.073Z,11.40
2022-08-20T13:05:39.701Z,11.97
2022-08-20T13:08:11.599Z,11.90
2022-08-20T13:10:44.493Z,12.50
2022-08-20T13:13:20.113Z,12.03
2022-08-20T13:15:47.269Z,11.40
2022-08-20T13:18:14.131Z,12.07
2022-08-20T13:20:41.201Z,12.07
2022-08-20T13:23:08.049Z,12.33
2022-08-20T13:25:35.280Z,11.50
2022-08-20T13:28:04.776Z,11.70
2022-08-20T13:30:34.768Z,12.07
2022-08-20T13:33:02.090Z,12.40
2022-08-20T13:35:29.112Z,12.27
2022-08-20T13:37:56.092Z,12.17
2022-08-20T13:40:23.281Z,12.50
2022-08-20T13:42:50.279Z,12.60
2022-08-20T13:45:17.266Z,12.40
2022-08-20T13:47:44.392Z,12.83
2022-08-20T13:50:15.367Z,12.20
2022-08-20T13:52:42.955Z,13.03
2022-08-20T13:55:12.954Z,13.10
2022-08-20T13:57:41.038Z,12.70
2022-08-20T14:00:12.683Z,12.53
2022-08-20T14:02:41.243Z,12.23
2022-08-20T14:05:08.764Z,11.60
2022-08-20T14:07:37.385Z,12.13
2022-08-20T14:10:09.191Z,11.70
2022-08-20T14:12:37.086Z,12.50
2022-08-20T14:15:04.523Z,11.93
2022-08-20T14:17:37.271Z,11.70
2022-08-20T14:20:09.464Z,12.60
2022-08-20T14:22:37.830Z,12.17
2022-08-20T14:25:09.525Z,12.57
2022-08-20T14:27:37.326Z,12.83
2022-08-20T14:30:11.152Z,12.43
2022-08-20T14:32:38.149Z,12.00
2022-08-20T14:35:06.567Z,12.33
2022-08-20T14:37:37.991Z,11.70
2022-08-20T14:40:08.517Z,12.20
2022-08-20T14:42:36.109Z,12.70
2022-08-20T14:45:04.817Z,12.13
2022-08-20T14:47:38.124Z,12.03
2022-08-20T14:50:09.316Z,12.93
2022-08-20T14:52:36.884Z,13.77
2022-08-20T14:55:09.034Z,12.80
2022-08-20T14:57:36.344Z,12.00
2022-08-20T15:00:05.674Z,12.47
2022-08-20T15:02:32.609Z,12.03
2022-08-20T15:04:59.463Z,12.97
2022-08-20T15:07:31.230Z,12.70
2022-08-20T15:09:58.679Z,12.63
2022-08-20T15:12:25.528Z,13.27
2022-08-20T15:14:52.559Z,13.17
2022-08-20T15:17:21.836Z,12.63
2022-08-20T15:19:49.209Z,12.30
2022-08-20T15:22:17.210Z,13.17
2022-08-20T15:24:44.482Z,13.23
2022-08-20T15:27:22.868Z,12.50
2022-08-20T15:29:51.210Z,12.50
2022-08-20T15:32:19.496Z,12.67
2022-08-20T15:34:47.300Z,12.33
2022-08-20T15:37:23.472Z,12.43
2022-08-20T15:39:51.378Z,13.03
2022-08-20T15:42:20.263Z,12.70
2022-08-20T15:44:47.639Z,12.30
2022-08-20T15:47:37.090Z,12.37
2022-08-20T15:50:14.173Z,12.20
2022-08-20T15:52:45.240Z,12.30
2022-08-20T15:55:15.670Z,12.40
2022-08-20T15:57:58.607Z,12.47
2022-08-20T16:00:44.760Z,12.17
2022-08-20T16:03:43.994Z,12.40
2022-08-20T16:06:19.041Z,12.20
2022-08-20T16:09:21.414Z,12.10
2022-08-20T16:12:03.139Z,12.60
2022-08-20T16:14:36.712Z,11.60
2022-08-20T16:17:06.482Z,11.97
2022-08-20T16:20:10.285Z,13.83
2022-08-20T16:22:45.573Z,12.60
2022-08-20T16:25:14.926Z,12.60
2022-08-20T16:27:44.608Z,12.40
2022-08-20T16:30:16.577Z,12.80
2022-08-20T16:32:59.999Z,12.90
2022-08-20T16:35:30.407Z,12.53
2022-08-20T16:38:00.353Z,12.27
2022-08-20T16:40:34.932Z,12.50
2022-08-20T16:43:05.841Z,12.13
2022-08-20T16:45:51.013Z,12.43
2022-08-20T16:48:19.037Z,11.80
2022-08-20T16:50:51.239Z,12.03
2022-08-20T16:53:23.665Z,12.03
2022-08-20T16:55:51.817Z,12.10
2022-08-20T16:58:18.868Z,12.20
2022-08-20T17:00:46.005Z,12.67
2022-08-20T17:03:21.748Z,12.40
2022-08-20T17:06:00.649Z,12.27
2022-08-20T17:08:31.587Z,12.33
2022-08-20T17:11:12.198Z,12.47
2022-08-20T17:13:43.088Z,12.90
2022-08-20T17:16:15.954Z,12.57
2022-08-20T17:18:53.822Z,12.67
2022-08-20T17:21:31.911Z,12.20
2022-08-20T17:24:05.016Z,12.40
2022-08-20T17:26:35.198Z,12.40
2022-08-20T17:29:12.788Z,11.80
2022-08-20T17:31:47.191Z,12.30
2022-08-20T17:34:29.580Z,12.07
2022-08-20T17:37:07.478Z,12.83
2022-08-20T17:39:34.782Z,12.13
2022-08-20T17:42:09.048Z,12.17
2022-08-20T17:44:47.385Z,12.00
2022-08-20T17:47:23.491Z,11.23
2022-08-20T17:50:02.121Z,11.87
2022-08-20T17:52:43.890Z,11.70
2022-08-20T17:55:12.630Z,12.27
2022-08-20T17:57:44.499Z,11.93
2022-08-20T18:00:17.526Z,12.40
2022-08-20T18:02:44.880Z,12.93
2022-08-20T18:05:19.621Z,12.63
2022-08-20T18:08:06.796Z,11.77
2022-08-20T18:10:52.740Z,12.37
2022-08-20T18:13:24.265Z,12.00
2022-08-20T18:15:56.976Z,12.23
2022-08-20T18:18:57.138Z,12.10
2022-08-20T18:21:36.487Z,12.10
2022-08-20T18:24:08.692Z,12.60
2022-08-20T18:26:38.633Z,11.90
2022-08-20T18:29:13.768Z,12.27
2022-08-20T18:31:45.714Z,12.63
2022-08-20T18:34:15.849Z,12.00
2022-08-20T18:36:54.508Z,12.40
2022-08-20T18:39:30.305Z,13.17
2022-08-20T18:42:09.892Z,12.13
2022-08-20T18:44:41.179Z,12.67
2022-08-20T18:47:21.005Z,12.50
2022-08-20T18:50:05.387Z,12.73
2022-08-20T18:52:35.973Z,12.00
2022-08-20T18:55:08.856Z,12.23
2022-08-20T18:58:04.371Z,11.60
2022-08-20T19:00:37.155Z,12.73
2022-08-20T19:03:06.754Z,12.50
2022-08-20T19:05:44.767Z,12.63
2022-08-20T19:08:23.037Z,13.07
2022-08-20T19:11:05.850Z,12.83
2022-08-20T19:13:51.376Z,12.97
2022-08-20T19:16:41.914Z,12.53
2022-08-20T19:19:20.957Z,13.30
2022-08-20T19:21:48.738Z,12.80
2022-08-20T19:24:19.141Z,13.00
2022-08-20T19:26:53.852Z,13.00
2022-08-20T19:29:26.823Z,13.13
2022-08-20T19:32:02.013Z,13.17
2022-08-20T19:34:29.448Z,12.83
2022-08-20T19:37:27.864Z,12.47
2022-08-20T19:39:53.242Z,12.80
2022-08-20T19:42:29.355Z,13.67
2022-08-20T19:45:07.680Z,12.90
2022-08-20T19:47:40.652Z,13.17
2022-08-20T19:50:26.420Z,13.13
2022-08-20T19:53:33.168Z,13.10
2022-08-20T19:56:23.188Z,13.00
2022-08-20T19:59:09.047Z,11.90
2022-08-20T20:01:36.790Z,12.27
2022-08-20T20:04:08.206Z,12.77
2022-08-20T20:06:37.375Z,12.87
2022-08-20T20:09:13.599Z,12.77
2022-08-20T20:11:51.829Z,12.90
2022-08-20T20:14:22.954Z,12.90
2022-08-20T20:16:51.136Z,12.20
2022-08-20T20:19:27.754Z,13.00
2022-08-20T20:22:13.388Z,12.63
2022-08-20T20:24:56.956Z,13.20
2022-08-20T20:27:26.757Z,12.17
2022-08-20T20:30:30.382Z,12.13
2022-08-20T20:32:59.899Z,12.37
2022-08-20T20:35:35.165Z,11.80
2022-08-20T20:38:09.565Z,12.50
2022-08-20T20:40:45.099Z,12.70
2022-08-20T20:43:35.604Z,12.53
2022-08-20T20:46:24.079Z,12.30
2022-08-20T20:49:31.554Z,12.37
2022-08-20T20:52:18.782Z,12.53
2022-08-20T20:54:47.048Z,12.30
2022-08-20T20:57:16.944Z,11.80
2022-08-20T20:59:46.432Z,12.80
2022-08-20T21:02:13.537Z,12.97
2022-08-20T21:04:42.674Z,11.90
2022-08-20T21:07:13.493Z,12.37
2022-08-20T21:09:42.431Z,12.93
2022-08-20T21:12:11.481Z,12.17
2022-08-20T21:14:39.197Z,12.97
2022-08-20T21:17:08.570Z,11.90
2022-08-20T21:19:41.075Z,11.90
2022-08-20T21:22:12.370Z,12.60
2022-08-20T21:24:39.226Z,12.27
2022-08-20T21:27:07.214Z,12.93
2022-08-20T21:29:34.344Z,12.37
2022-08-20T21:32:01.289Z,12.17
2022-08-20T21:34:28.238Z,12.67
2022-08-20T21:36:56.377Z,12.53
2022-08-20T21:39:25.921Z,11.97
2022-08-20T21:42:02.889Z,12.57
2022-08-20T21:44:31.760Z,12.47
2022-08-20T21:47:00.971Z,11.83
2022-08-20T21:49:29.242Z,11.80
2022-08-20T21:51:56.431Z,11.57
2022-08-20T21:54:24.417Z,11.40
2022-08-20T21:57:08.281Z,12.40
2022-08-20T21:59:38.494Z,12.10
2022-08-20T22:02:06.331Z,12.03
2022-08-20T22:04:35.624Z,12.63
2022-08-20T22:07:03.904Z,12.23
2022-08-20T22:09:32.979Z,12.33
2022-08-20T22:12:03.996Z,12.67
2022-08-20T22:14:31.374Z,12.53
2022-08-20T22:16:59.037Z,13.20
2022-08-20T22:19:25.916Z,12.70
2022-08-20T22:21:54.913Z,11.57
2022-08-20T22:24:23.139Z,11.90
2022-08-20T22:26:49.995Z,12.57
2022-08-20T22:29:16.938Z,12.87
2022-08-20T22:31:44.811Z,12.60
2022-08-20T22:34:15.602Z,12.60
2022-08-20T22:36:42.965Z,14.03
2022-08-20T22:39:10.287Z,12.50
2022-08-20T22:41:37.937Z,12.57
2022-08-20T22:44:05.064Z,11.80
2022-08-20T22:46:42.466Z,12.00
2022-08-20T22:49:17.338Z,11.80
2022-08-20T22:51:44.568Z,12.43
2022-08-20T22:54:15.697Z,12.30
2022-08-20T22:56:42.685Z,12.17
2022-08-20T22:59:10.674Z,12.73
2022-08-20T23:01:38.103Z,11.53
2022-08-20T23:04:12.291Z,12.20
2022-08-20T23:06:39.227Z,12.37
2022-08-20T23:09:06.280Z,12.23
2022-08-20T23:11:33.238Z,12.00
2022-08-20T23:14:00.139Z,12.43
2022-08-20T23:16:27.108Z,12.40
2022-08-20T23:18:54.169Z,12.07
2022-08-20T23:21:21.158Z,12.53
2022-08-20T23:23:48.019Z,13.03
2022-08-20T23:26:20.460Z,11.93
2022-08-20T23:28:47.646Z,11.83
2022-08-20T23:31:14.863Z,11.70
2022-08-20T23:33:44.831Z,12.57
2022-08-20T23:36:15.257Z,12.20
2022-08-20T23:38:42.573Z,12.87
2022-08-20T23:41:09.565Z,12.77
2022-08-20T23:43:37.740Z,12.57
2022-08-20T23:46:06.842Z,12.50
2022-08-20T23:48:34.323Z,12.53
2022-08-20T23:51:01.626Z,12.73
2022-08-20T23:53:28.541Z,11.93
2022-08-20T23:55:55.405Z,12.50
2022-08-20T23:58:22.464Z,12.37
